createdAt,value
2023-04-14T00:00:53.466Z,99265.08
2023-04-14T00:03:22.727Z,99270.59
2023-04-14T00:05:51.718Z,99273.02
2023-04-14T00:08:21.415Z,99271.63
2023-04-14T00:10:49.688Z,99271.41
2023-04-14T00:13:17.634Z,99273.17
2023-04-14T00:15:48.982Z,99271.28
2023-04-14T00:18:17.027Z,99270.46
2023-04-14T00:20:44.989Z,99269.27
2023-04-14T00:23:16.382Z,99270.15
2023-04-14T00:25:45.078Z,99269.88
2023-04-14T00:28:13.076Z,99272.89
2023-04-14T00:30:46.759Z,99276.88
2023-04-14T00:33:16.308Z,99279.50
2023-04-14T00:35:44.277Z,99276.54
2023-04-14T00:38:12.430Z,99276.91
2023-04-14T00:40:40.495Z,99272.45
2023-04-14T00:43:08.372Z,99273.74
2023-04-14T00:45:41.287Z,99271.77
2023-04-14T00:48:10.914Z,99274.77
2023-04-14T00:50:39.426Z,99272.95
2023-04-14T00:53:07.630Z,99272.92
2023-04-14T00:55:36.504Z,99273.14
2023-04-14T00:58:04.484Z,99275.42
2023-04-14T01:00:33.979Z,99270.76
2023-04-14T01:03:03.761Z,99273.05
2023-04-14T01:05:33.969Z,99277.50
2023-04-14T01:08:03.602Z,99277.98
2023-04-14T01:10:36.231Z,99280.38
2023-04-14T01:13:27.408Z,99285.10
2023-04-14T01:15:58.009Z,99282.39
2023-04-14T01:18:35.880Z,99285.77
2023-04-14T01:21:06.983Z,99289.61
2023-04-14T01:23:36.962Z,99295.61
2023-04-14T01:26:19.404Z,99295.05
2023-04-14T01:29:03.113Z,99288.93
2023-04-14T01:31:35.629Z,99290.61
2023-04-14T01:34:06.976Z,99284.01
2023-04-14T01:36:40.010Z,99280.39
2023-04-14T01:39:08.883Z,99282.41
2023-04-14T01:41:38.870Z,99279.41
2023-04-14T01:44:06.989Z,99283.89
2023-04-14T01:46:35.397Z,99285.62
2023-04-14T01:49:03.689Z,99286.84
2023-04-14T01:51:33.478Z,99288.64
2023-04-14T01:54:01.623Z,99287.13
2023-04-14T01:56:29.880Z,99287.00
2023-04-14T01:58:58.077Z,99286.51
2023-04-14T02:01:26.698Z,99287.88
2023-04-14T02:03:58.500Z,99292.23
2023-04-14T02:06:27.702Z,99290.70
2023-04-14T02:08:56.017Z,99292.47
2023-04-14T02:11:24.005Z,99295.50
2023-04-14T02:13:52.012Z,99298.45
2023-04-14T02:16:19.995Z,99295.14
2023-04-14T02:18:48.010Z,99297.28
2023-04-14T02:21:18.722Z,99299.65
2023-04-14T02:23:47.985Z,99303.73
2023-04-14T02:26:22.498Z,99310.58
2023-04-14T02:29:07.426Z,99311.61
2023-04-14T02:31:36.965Z,99318.54
2023-04-14T02:34:05.912Z,99318.27
2023-04-14T02:36:46.420Z,99325.90
2023-04-14T02:39:20.934Z,99325.75
2023-04-14T02:41:56.996Z,99324.43
2023-04-14T02:44:29.441Z,99327.60
2023-04-14T02:47:04.103Z,99330.59
2023-04-14T02:49:34.703Z,99334.84
2023-04-14T02:52:05.944Z,99340.27
2023-04-14T02:54:35.262Z,99338.57
2023-04-14T02:57:04.166Z,99341.09
2023-04-14T02:59:37.661Z,99343.63
2023-04-14T03:02:07.205Z,99348.30
2023-04-14T03:04:38.386Z,99343.88
2023-04-14T03:07:09.239Z,99344.98
2023-04-14T03:09:38.126Z,99348.59
2023-04-14T03:12:12.833Z,99349.70
2023-04-14T03:14:43.043Z,99355.66
2023-04-14T03:17:14.849Z,99359.80
2023-04-14T03:19:49.143Z,99363.42
2023-04-14T03:22:18.460Z,99360.13
2023-04-14T03:24:46.433Z,99364.20
2023-04-14T03:27:18.501Z,99362.67
2023-04-14T03:29:47.972Z,99359.11
2023-04-14T03:32:16.594Z,99360.42
2023-04-14T03:34:47.196Z,99360.59
2023-04-14T03:37:18.352Z,99363.45
2023-04-14T03:39:47.652Z,99364.48
2023-04-14T03:42:16.755Z,99367.28
2023-04-14T03:44:50.043Z,99371.14
2023-04-14T03:47:19.325Z,99371.59
2023-04-14T03:49:48.822Z,99374.98
2023-04-14T03:52:17.009Z,99373.69
2023-04-14T03:54:45.541Z,99371.78
2023-04-14T03:57:14.045Z,99376.29
2023-04-14T03:59:42.708Z,99380.08
2023-04-14T04:02:12.420Z,99383.41
2023-04-14T04:04:40.990Z,99383.98
2023-04-14T04:07:10.640Z,99383.33
2023-04-14T04:09:39.430Z,99385.95
2023-04-14T04:12:07.948Z,99387.35
2023-04-14T04:14:42.046Z,99388.98
2023-04-14T04:17:12.940Z,99391.25
2023-04-14T04:19:41.038Z,99390.72
2023-04-14T04:22:14.804Z,99398.73
2023-04-14T04:24:43.067Z,99396.17
2023-04-14T04:27:26.515Z,99398.02
2023-04-14T04:29:56.487Z,99401.05
2023-04-14T04:32:25.295Z,99400.23
2023-04-14T04:34:53.393Z,99398.30
2023-04-14T04:37:21.570Z,99397.29
2023-04-14T04:39:49.635Z,99400.07
2023-04-14T04:42:17.867Z,99406.27
2023-04-14T04:44:46.200Z,99404.67
2023-04-14T04:47:14.388Z,99411.27
2023-04-14T04:49:42.577Z,99412.55
2023-04-14T04:52:10.694Z,99416.33
2023-04-14T04:54:38.734Z,99422.02
2023-04-14T04:57:07.674Z,99420.42
2023-04-14T04:59:37.385Z,99427.00
2023-04-14T05:02:09.325Z,99427.16
2023-04-14T05:04:37.883Z,99430.98
2023-04-14T05:07:06.309Z,99434.02
2023-04-14T05:09:36.309Z,99436.02
2023-04-14T05:12:06.958Z,99434.92
2023-04-14T05:14:35.880Z,99438.25
2023-04-14T05:17:08.975Z,99436.23
2023-04-14T05:19:39.049Z,99444.35
2023-04-14T05:22:07.979Z,99445.92
2023-04-14T05:24:36.627Z,99445.76
2023-04-14T05:27:14.364Z,99449.36
2023-04-14T05:29:43.539Z,99454.59
2023-04-14T05:32:13.131Z,99458.69
2023-04-14T05:34:41.863Z,99459.11
2023-04-14T05:37:11.033Z,99458.54
2023-04-14T05:39:39.412Z,99460.67
2023-04-14T05:42:07.651Z,99462.20
2023-04-14T05:44:38.966Z,99460.36
2023-04-14T05:47:07.088Z,99460.59
2023-04-14T05:49:36.505Z,99461.14
2023-04-14T05:52:05.016Z,99461.06
2023-04-14T05:54:38.312Z,99461.42
2023-04-14T05:57:06.375Z,99463.52
2023-04-14T05:59:34.340Z,99464.05
2023-04-14T06:02:06.765Z,99468.16
2023-04-14T06:04:36.068Z,99479.02
2023-04-14T06:07:04.403Z,99479.80
2023-04-14T06:09:34.620Z,99479.71
2023-04-14T06:12:09.474Z,99482.63
2023-04-14T06:14:38.576Z,99483.25
2023-04-14T06:17:10.048Z,99482.34
2023-04-14T06:19:38.357Z,99489.02
2023-04-14T06:22:06.466Z,99494.70
2023-04-14T06:24:35.425Z,99489.85
2023-04-14T06:27:06.794Z,99495.10
2023-04-14T06:29:35.531Z,99491.74
2023-04-14T06:32:06.048Z,99498.08
2023-04-14T06:34:41.344Z,99496.42
2023-04-14T06:37:13.228Z,99499.39
2023-04-14T06:39:41.582Z,99502.02
2023-04-14T06:42:13.452Z,99504.13
2023-04-14T06:44:44.667Z,99507.55
2023-04-14T06:47:18.578Z,99503.98
2023-04-14T06:49:54.240Z,99510.64
2023-04-14T06:52:31.017Z,99514.63
2023-04-14T06:55:03.242Z,99514.79
2023-04-14T06:57:36.726Z,99514.76
2023-04-14T07:00:11.506Z,99516.69
2023-04-14T07:03:06.099Z,99517.67
2023-04-14T07:05:39.088Z,99521.20
2023-04-14T07:08:13.968Z,99527.61
2023-04-14T07:10:43.923Z,99529.42
2023-04-14T07:13:15.677Z,99528.68
2023-04-14T07:15:52.929Z,99535.21
2023-04-14T07:18:21.904Z,99541.09
2023-04-14T07:20:52.733Z,99538.90
2023-04-14T07:23:21.977Z,99538.08
2023-04-14T07:25:52.957Z,99541.08
2023-04-14T07:28:25.017Z,99544.91
2023-04-14T07:30:54.934Z,99542.22
2023-04-14T07:33:24.224Z,99538.55
2023-04-14T07:36:03.635Z,99540.15
2023-04-14T07:38:34.019Z,99540.48
2023-04-14T07:41:04.294Z,99542.41
2023-04-14T07:43:43.530Z,99544.91
2023-04-14T07:46:13.412Z,99542.20
2023-04-14T07:48:42.663Z,99541.21
2023-04-14T07:51:14.686Z,99538.91
2023-04-14T07:53:46.492Z,99542.41
2023-04-14T07:56:19.003Z,99535.88
2023-04-14T07:58:48.828Z,99540.19
2023-04-14T08:01:17.840Z,99539.81
2023-04-14T08:03:46.950Z,99539.45
2023-04-14T08:06:16.921Z,99541.55
2023-04-14T08:08:48.401Z,99544.81
2023-04-14T08:11:17.129Z,99551.23
2023-04-14T08:13:49.912Z,99550.98
2023-04-14T08:16:21.492Z,99552.06
2023-04-14T08:18:50.777Z,99551.48
2023-04-14T08:21:21.357Z,99546.17
2023-04-14T08:23:53.733Z,99553.29
2023-04-14T08:26:22.906Z,99552.64
2023-04-14T08:28:51.057Z,99555.30
2023-04-14T08:31:23.245Z,99558.90
2023-04-14T08:33:55.632Z,99561.17
2023-04-14T08:36:28.154Z,99560.34
2023-04-14T08:38:57.412Z,99557.91
2023-04-14T08:41:26.317Z,99553.40
2023-04-14T08:43:54.968Z,99548.34
2023-04-14T08:46:24.555Z,99546.20
2023-04-14T08:48:52.717Z,99546.04
2023-04-14T08:51:37.179Z,99546.32
2023-04-14T08:54:11.812Z,99540.38
2023-04-14T08:56:42.484Z,99546.36
2023-04-14T08:59:11.372Z,99546.07
2023-04-14T09:01:40.141Z,99547.14
2023-04-14T09:04:10.049Z,99548.86
2023-04-14T09:06:38.794Z,99551.55
2023-04-14T09:09:09.534Z,99551.09
2023-04-14T09:11:37.939Z,99552.19
2023-04-14T09:14:07.234Z,99556.63
2023-04-14T09:16:37.434Z,99556.98
2023-04-14T09:19:07.200Z,99558.20
2023-04-14T09:21:53.368Z,99557.74
2023-04-14T09:24:32.363Z,99561.98
2023-04-14T09:27:08.093Z,99560.26
2023-04-14T09:29:41.104Z,99567.30
2023-04-14T09:32:29.985Z,99566.94
2023-04-14T09:35:01.613Z,99563.80
2023-04-14T09:37:42.874Z,99568.23
2023-04-14T09:40:27.104Z,99569.92
2023-04-14T09:42:56.795Z,99575.34
2023-04-14T09:45:55.755Z,99578.17
2023-04-14T09:48:25.371Z,99582.33
2023-04-14T09:51:01.832Z,99586.11
2023-04-14T09:53:33.565Z,99585.29
2023-04-14T09:56:05.714Z,99588.41
2023-04-14T09:58:42.197Z,99593.45
2023-04-14T10:01:15.843Z,99591.27
2023-04-14T10:03:48.007Z,99591.34
2023-04-14T10:06:19.411Z,99594.36
2023-04-14T10:08:51.882Z,99594.73
2023-04-14T10:11:29.736Z,99596.09
2023-04-14T10:14:06.505Z,99592.74
2023-04-14T10:16:40.895Z,99592.15
2023-04-14T10:19:15.232Z,99594.89
2023-04-14T10:21:44.937Z,99593.23
2023-04-14T10:24:13.465Z,99598.05
2023-04-14T10:26:43.422Z,99600.90
2023-04-14T10:29:12.697Z,99604.03
2023-04-14T10:31:43.990Z,99606.55
2023-04-14T10:34:15.939Z,99608.70
2023-04-14T10:36:44.539Z,99616.23
2023-04-14T10:39:12.785Z,99616.34
2023-04-14T10:41:48.403Z,99623.83
2023-04-14T10:44:35.134Z,99622.91
2023-04-14T10:47:08.228Z,99622.09
2023-04-14T10:49:38.885Z,99628.30
2023-04-14T10:52:27.634Z,99629.00
2023-04-14T10:55:03.972Z,99632.84
2023-04-14T10:57:32.183Z,99635.96
2023-04-14T11:00:04.976Z,99639.67
2023-04-14T11:02:35.563Z,99640.83
2023-04-14T11:05:09.578Z,99641.73
2023-04-14T11:07:47.385Z,99643.94
2023-04-14T11:10:21.971Z,99644.27
2023-04-14T11:13:04.076Z,99647.83
2023-04-14T11:15:48.355Z,99645.06
2023-04-14T11:18:37.134Z,99649.92
2023-04-14T11:21:07.370Z,99655.60
2023-04-14T11:23:36.497Z,99656.61
2023-04-14T11:26:14.394Z,99659.70
2023-04-14T11:28:47.995Z,99659.70
2023-04-14T11:31:17.977Z,99659.54
2023-04-14T11:33:48.869Z,99654.44
2023-04-14T11:36:18.210Z,99650.95
2023-04-14T11:38:48.435Z,99651.86
2023-04-14T11:41:18.568Z,99651.40
2023-04-14T11:43:49.859Z,99657.19
2023-04-14T11:46:22.433Z,99655.66
2023-04-14T11:48:57.383Z,99653.53
2023-04-14T11:51:32.491Z,99650.23
2023-04-14T11:54:03.611Z,99651.67
2023-04-14T11:56:33.430Z,99648.54
2023-04-14T11:59:03.056Z,99648.50
2023-04-14T12:01:33.639Z,99644.80
2023-04-14T12:04:08.100Z,99646.98
2023-04-14T12:06:39.377Z,99646.37
2023-04-14T12:09:11.819Z,99650.20
2023-04-14T12:11:41.044Z,99647.20
2023-04-14T12:14:10.012Z,99640.91
2023-04-14T12:16:38.248Z,99641.23
2023-04-14T12:19:07.753Z,99637.77
2023-04-14T12:21:36.474Z,99638.13
2023-04-14T12:24:11.289Z,99639.92
2023-04-14T12:27:09.194Z,99641.96
2023-04-14T12:29:38.301Z,99648.02
2023-04-14T12:32:12.630Z,99648.35
2023-04-14T12:34:55.005Z,99644.27
2023-04-14T12:37:28.014Z,99645.50
2023-04-14T12:39:59.175Z,99644.94
2023-04-14T12:42:28.530Z,99640.30
2023-04-14T12:44:59.442Z,99640.30
2023-04-14T12:47:39.168Z,99642.50
2023-04-14T12:50:31.150Z,99642.47
2023-04-14T12:53:03.671Z,99641.73
2023-04-14T12:55:33.920Z,99645.53
2023-04-14T12:58:03.986Z,99641.49
2023-04-14T13:00:33.178Z,99644.50
2023-04-14T13:03:08.192Z,99650.18
2023-04-14T13:05:41.894Z,99649.20
2023-04-14T13:08:10.601Z,99655.63
2023-04-14T13:10:38.716Z,99656.48
2023-04-14T13:13:12.279Z,99655.96
2023-04-14T13:16:12.913Z,99661.36
2023-04-14T13:18:31.777Z,99664.73
2023-04-14T13:21:02.313Z,99667.45
2023-04-14T13:23:31.756Z,99662.27
2023-04-14T13:26:01.648Z,99665.50
2023-04-14T13:28:32.014Z,99656.41
2023-04-14T13:31:01.709Z,99656.73
2023-04-14T13:33:31.210Z,99660.65
2023-04-14T13:35:59.473Z,99664.46
2023-04-14T13:38:29.145Z,99665.44
2023-04-14T13:40:59.218Z,99658.55
2023-04-14T13:43:27.192Z,99658.46
2023-04-14T13:45:59.165Z,99658.31
2023-04-14T13:48:27.615Z,99659.56
2023-04-14T13:50:56.015Z,99657.73
2023-04-14T13:53:24.358Z,99659.84
2023-04-14T13:55:52.616Z,99661.16
2023-04-14T13:58:21.388Z,99663.62
2023-04-14T14:00:50.728Z,99663.30
2023-04-14T14:03:40.715Z,99666.19
2023-04-14T14:06:10.497Z,99669.35
2023-04-14T14:08:42.224Z,99666.96
2023-04-14T14:11:14.234Z,99672.64
2023-04-14T14:13:43.171Z,99674.03
2023-04-14T14:16:11.324Z,99668.76
2023-04-14T14:18:47.467Z,99672.58
2023-04-14T14:21:16.144Z,99673.95
2023-04-14T14:23:53.134Z,99682.52
2023-04-14T14:26:21.040Z,99688.82
2023-04-14T14:28:49.226Z,99685.98
2023-04-14T14:31:18.002Z,99689.61
2023-04-14T14:33:46.919Z,99696.98
2023-04-14T14:36:15.426Z,99696.65
2023-04-14T14:38:43.472Z,99700.81
2023-04-14T14:41:12.606Z,99703.27
2023-04-14T14:43:40.881Z,99705.45
2023-04-14T14:46:09.941Z,99712.41
2023-04-14T14:48:38.751Z,99716.53
2023-04-14T14:51:06.673Z,99723.58
2023-04-14T14:53:39.105Z,99725.10
2023-04-14T14:56:10.581Z,99731.45
2023-04-14T14:58:38.560Z,99732.85
2023-04-14T15:01:16.980Z,99736.36
2023-04-14T15:03:46.574Z,99738.71
2023-04-14T15:06:15.517Z,99738.20
2023-04-14T15:08:43.878Z,99738.30
2023-04-14T15:11:14.603Z,99739.23
2023-04-14T15:13:45.549Z,99741.99
2023-04-14T15:16:13.602Z,99745.60
2023-04-14T15:18:43.057Z,99746.65
2023-04-14T15:21:11.225Z,99752.39
2023-04-14T15:23:41.958Z,99755.92
2023-04-14T15:26:16.212Z,99756.61
2023-04-14T15:28:49.326Z,99759.41
2023-04-14T15:31:18.304Z,99765.37
2023-04-14T15:33:46.712Z,99764.67
2023-04-14T15:36:17.046Z,99771.05
2023-04-14T15:38:47.162Z,99771.09
2023-04-14T15:41:15.097Z,99768.66
2023-04-14T15:43:43.173Z,99773.59
2023-04-14T15:46:13.223Z,99776.80
2023-04-14T15:48:42.662Z,99775.23
2023-04-14T15:51:11.135Z,99776.67
2023-04-14T15:53:39.319Z,99775.81
2023-04-14T15:56:07.295Z,99781.94
2023-04-14T15:58:35.564Z,99782.70
2023-04-14T16:01:07.548Z,99791.46
2023-04-14T16:03:38.080Z,99791.83
2023-04-14T16:06:08.235Z,99795.68
2023-04-14T16:08:37.401Z,99799.95
2023-04-14T16:11:05.517Z,99805.21
2023-04-14T16:13:39.229Z,99806.89
2023-04-14T16:16:08.125Z,99812.11
2023-04-14T16:18:37.022Z,99811.77
2023-04-14T16:21:05.590Z,99813.05
2023-04-14T16:23:37.189Z,99819.48
2023-04-14T16:26:05.837Z,99817.89
2023-04-14T16:28:34.596Z,99821.45
2023-04-14T16:31:05.394Z,99826.88
2023-04-14T16:33:34.136Z,99822.97
2023-04-14T16:36:06.590Z,99826.55
2023-04-14T16:38:34.534Z,99826.92
2023-04-14T16:41:02.647Z,99827.36
2023-04-14T16:43:31.567Z,99834.08
2023-04-14T16:46:04.227Z,99837.88
2023-04-14T16:48:35.109Z,99842.05
2023-04-14T16:51:04.850Z,99843.04
2023-04-14T16:53:34.744Z,99845.41
2023-04-14T16:56:07.273Z,99844.50
2023-04-14T16:58:45.498Z,99847.20
2023-04-14T17:01:13.694Z,99846.90
2023-04-14T17:03:42.529Z,99849.57
2023-04-14T17:06:10.995Z,99852.40
2023-04-14T17:08:41.698Z,99853.09
2023-04-14T17:11:09.916Z,99857.06
2023-04-14T17:13:38.448Z,99855.95
2023-04-14T17:16:11.245Z,99864.20
2023-04-14T17:18:41.484Z,99866.30
2023-04-14T17:21:09.492Z,99868.64
2023-04-14T17:23:48.985Z,99869.14
2023-04-14T17:26:17.071Z,99873.64
2023-04-14T17:28:45.884Z,99876.56
2023-04-14T17:31:15.768Z,99880.15
2023-04-14T17:33:44.679Z,99881.15
2023-04-14T17:36:14.786Z,99886.20
2023-04-14T17:38:43.572Z,99891.10
2023-04-14T17:41:12.832Z,99892.21
2023-04-14T17:43:43.903Z,99895.47
2023-04-14T17:46:12.526Z,99899.07
2023-04-14T17:48:41.469Z,99898.48
2023-04-14T17:51:10.268Z,99897.96
2023-04-14T17:53:39.397Z,99903.02
2023-04-14T17:56:07.865Z,99901.36
2023-04-14T17:58:36.839Z,99902.10
2023-04-14T18:01:05.702Z,99903.63
2023-04-14T18:03:35.124Z,99907.08
2023-04-14T18:06:03.513Z,99907.77
2023-04-14T18:08:32.285Z,99906.54
2023-04-14T18:11:00.478Z,99906.91
2023-04-14T18:13:29.944Z,99907.66
2023-04-14T18:15:58.025Z,99912.02
2023-04-14T18:18:29.379Z,99912.30
2023-04-14T18:20:57.602Z,99912.98
2023-04-14T18:23:25.543Z,99914.27
2023-04-14T18:28:33.832Z,99916.88
2023-04-14T18:31:01.821Z,99915.63
2023-04-14T18:33:30.710Z,99916.54
2023-04-14T18:36:00.524Z,99916.14
2023-04-14T18:38:28.851Z,99915.31
2023-04-14T18:41:05.037Z,99913.10
2023-04-14T18:43:34.295Z,99915.64
2023-04-14T18:46:02.581Z,99914.73
2023-04-14T18:48:34.195Z,99914.40
2023-04-14T18:51:04.614Z,99916.56
2023-04-14T18:53:32.640Z,99917.77
2023-04-14T18:56:03.367Z,99915.52
2023-04-14T18:58:32.589Z,99910.76
2023-04-14T19:01:00.654Z,99912.58
2023-04-14T19:03:31.844Z,99908.11
2023-04-14T19:06:00.164Z,99903.25
2023-04-14T19:08:28.157Z,99902.09
2023-04-14T19:10:57.510Z,99901.00
2023-04-14T19:13:28.322Z,99898.64
2023-04-14T19:16:06.470Z,99904.88
2023-04-14T19:18:35.563Z,99903.48
2023-04-14T19:21:07.920Z,99904.30
2023-04-14T19:23:36.379Z,99900.61
2023-04-14T19:26:06.411Z,99902.23
2023-04-14T19:28:39.960Z,99903.51
2023-04-14T19:31:08.347Z,99907.30
2023-04-14T19:33:36.541Z,99905.63
2023-04-14T19:36:14.934Z,99907.74
2023-04-14T19:38:44.096Z,99907.47
2023-04-14T19:41:12.298Z,99915.18
2023-04-14T19:43:42.096Z,99912.39
2023-04-14T19:46:12.891Z,99915.32
2023-04-14T19:48:42.733Z,99915.72
2023-04-14T19:51:11.459Z,99911.54
2023-04-14T19:53:39.698Z,99910.49
2023-04-14T19:56:08.817Z,99908.02
2023-04-14T19:58:37.322Z,99908.77
2023-04-14T20:01:06.124Z,99909.55
2023-04-14T20:03:36.714Z,99908.77
2023-04-14T20:06:04.936Z,99911.21
2023-04-14T20:08:34.587Z,99910.29
2023-04-14T20:11:04.960Z,99912.13
2023-04-14T20:13:35.484Z,99917.13
2023-04-14T20:16:08.669Z,99927.25
2023-04-14T20:18:36.749Z,99930.41
2023-04-14T20:21:06.449Z,99932.58
2023-04-14T20:23:34.714Z,99934.15
2023-04-14T20:26:06.914Z,99937.03
2023-04-14T20:28:36.177Z,99940.45
2023-04-14T20:31:04.219Z,99941.08
2023-04-14T20:33:34.320Z,99943.23
2023-04-14T20:36:02.350Z,99943.99
2023-04-14T20:38:30.957Z,99944.38
2023-04-14T20:41:01.164Z,99946.12
2023-04-14T20:43:34.354Z,99949.91
2023-04-14T20:46:03.879Z,99952.02
2023-04-14T20:48:35.371Z,99954.43
2023-04-14T20:51:04.552Z,99951.31
2023-04-14T20:53:32.634Z,99954.19
2023-04-14T20:56:01.073Z,99959.66
2023-04-14T20:58:30.573Z,99967.89
2023-04-14T21:00:58.575Z,99972.27
2023-04-14T21:03:28.987Z,99981.94
2023-04-14T21:05:57.630Z,99986.55
2023-04-14T21:08:27.454Z,99995.19
2023-04-14T21:11:15.703Z,99999.56
2023-04-14T21:15:25.125Z,100000.42
2023-04-14T21:16:32.831Z,100004.28
2023-04-14T21:19:04.315Z,100002.45
2023-04-14T21:21:42.788Z,100007.80
2023-04-14T21:24:11.383Z,100016.21
2023-04-14T21:26:39.465Z,100017.80
2023-04-14T21:29:14.665Z,100024.20
2023-04-14T21:31:42.796Z,100028.40
2023-04-14T21:34:11.279Z,100029.58
2023-04-14T21:36:39.418Z,100034.06
2023-04-14T21:39:07.520Z,100038.77
2023-04-14T21:41:35.870Z,100039.83
2023-04-14T21:44:04.102Z,100041.52
2023-04-14T21:46:35.058Z,100048.27
2023-04-14T21:49:03.888Z,100052.50
2023-04-14T21:51:32.223Z,100056.49
2023-04-14T21:54:02.638Z,100060.56
2023-04-14T21:56:31.446Z,100066.23
2023-04-14T21:58:59.751Z,100072.88
2023-04-14T22:01:31.563Z,100077.63
2023-04-14T22:04:00.725Z,100081.06
2023-04-14T22:06:29.554Z,100083.42
2023-04-14T22:09:01.929Z,100087.06
2023-04-14T22:11:32.188Z,100085.40
2023-04-14T22:14:00.917Z,100084.90
2023-04-14T22:16:35.570Z,100084.62
2023-04-14T22:19:09.117Z,100086.23
2023-04-14T22:21:37.843Z,100086.84
2023-04-14T22:24:06.287Z,100087.33
2023-04-14T22:26:34.375Z,100089.66
2023-04-14T22:29:02.719Z,100088.53
2023-04-14T22:31:31.260Z,100095.58
2023-04-14T22:33:59.416Z,100093.73
2023-04-14T22:36:28.588Z,100094.21
2023-04-14T22:38:57.092Z,100098.52
2023-04-14T22:41:25.023Z,100098.52
2023-04-14T22:43:53.462Z,100096.06
2023-04-14T22:46:24.382Z,100092.16
2023-04-14T22:48:52.690Z,100090.65
2023-04-14T22:51:20.744Z,100089.73
2023-04-14T22:53:49.373Z,100085.95
2023-04-14T22:56:18.016Z,100081.99
2023-04-14T22:58:45.903Z,100090.23
2023-04-14T23:01:21.929Z,100087.38
2023-04-14T23:03:54.829Z,100085.40
2023-04-14T23:06:23.087Z,100084.13
2023-04-14T23:08:51.378Z,100083.63
2023-04-14T23:11:20.928Z,100083.51
2023-04-14T23:13:49.642Z,100082.03
2023-04-14T23:16:20.013Z,100084.16
2023-04-14T23:18:52.904Z,100084.94
2023-04-14T23:21:24.873Z,100083.00
2023-04-14T23:23:52.938Z,100084.33
2023-04-14T23:26:27.194Z,100084.69
2023-04-14T23:28:56.942Z,100084.90
2023-04-14T23:31:25.061Z,100082.48
2023-04-14T23:33:53.082Z,100080.38
2023-04-14T23:36:21.712Z,100076.02
2023-04-14T23:38:49.619Z,100074.38
2023-04-14T23:41:21.965Z,100068.33
2023-04-14T23:43:51.636Z,100070.71
2023-04-14T23:46:19.706Z,100071.70
2023-04-14T23:48:53.503Z,100070.88
2023-04-14T23:51:22.876Z,100070.42
2023-04-14T23:53:51.787Z,100069.65
2023-04-14T23:56:24.112Z,100070.94
2023-04-14T23:58:52.194Z,100067.61
